ADDS METAR Data INFO
IDs: Format: Raw Decoded Include TAF

Data at: 0321 UTC 16 Dec 2017

KSHD 160315Z AUTO 25006KT 10SM CLR M02/M09 A3000 RMK AO2 T10221094
KSHD 160255Z AUTO 24006KT 10SM CLR M03/M09 A3000 RMK AO2 T10261095
KSHD 160235Z AUTO 26003KT 10SM CLR M02/M09 A3000 RMK AO2 T10191093
KSHD 160215Z AUTO 26004KT 10SM CLR M03/M09 A2999 RMK AO2 T10261093
KSHD 160155Z AUTO 26004KT 10SM CLR M02/M09 A2999 RMK AO2 T10191094
KSHD 160135Z AUTO 25004KT 10SM CLR M01/M09 A2999 RMK AO2 T10121092
KSHD 160115Z AUTO 25004KT 10SM CLR M01/M09 A2998 RMK AO2 T10121091
KSHD 160055Z AUTO 26007KT 10SM SCT048 M01/M09 A2998 RMK AO2 T10101091
KSHD 160035Z AUTO 26008KT 10SM SCT048 M01/M09 A2997 RMK AO2 T10071091
KSHD 160015Z AUTO 25010KT 10SM SCT048 00/M09 A2997 RMK AO2 T10051090
KSHD 152355Z AUTO 26007KT 10SM CLR M01/M09 A2996 RMK AO2 T10061087 10007 21016
KSHD 152335Z AUTO 29008G14KT 10SM CLR 00/M09 A2996 RMK AO2 T10031086
KSHD 152315Z AUTO 28009G15KT 10SM CLR 00/M09 A2994 RMK AO2 T10011086
KSHD 152255Z AUTO 27009KT 10SM CLR 00/M08 A2993 RMK AO2 T00001084
KSHD 152235Z AUTO 28010G16KT 10SM CLR 00/M08 A2992 RMK AO2 T00001082
KSHD 152215Z AUTO 29009G16KT 10SM CLR 00/M08 A2990 RMK AO2 T00021078
KSHD 152155Z AUTO 28009KT 10SM SCT042 01/M07 A2989 RMK AO2 T00051071
KSHD 152135Z AUTO 00000KT 10SM OVC042 01/M05 A2989 RMK AO2 T00051046
KSHD 152115Z AUTO 18005KT 10SM OVC042 01/M04 A2988 RMK AO2 T00071042
KSHD 152055Z AUTO 18007KT 10SM OVC046 01/M04 A2988 RMK AO2 T00061042
KSHD 152035Z AUTO 19006KT 10SM SCT040 OVC048 00/M04 A2988 RMK AO2 T00011042
KSHD 152015Z AUTO 18006KT 10SM OVC040 00/M04 A2989 RMK AO2 T00001043
KSHD 151955Z AUTO 19003KT 10SM BKN038 OVC044 00/M05 A2989 RMK AO2 T10031046
KSHD 151935Z AUTO 18004KT 10SM OVC044 M01/M04 A2989 RMK AO2 T10061045
KSHD 151915Z AUTO 16005KT 10SM SCT035 OVC046 M01/M05 A2989 RMK AO2 T10111048
KSHD 151855Z AUTO 17004KT 7SM BKN027 OVC035 M01/M05 A2990 RMK AO2 T10151051
KSHD 151835Z AUTO 19003KT 10SM OVC025 M01/M06 A2990 RMK AO2 T10151057
KSHD 151815Z AUTO 17003KT 7SM OVC021 M01/M06 A2991 RMK AO2 T10151061
KSHD 151755Z AUTO 21004KT 10SM OVC019 M01/M06 A2991 RMK AO2 T10151064 11011 21027
KSHD 151735Z AUTO 21004KT 10SM OVC019 M02/M06 A2992 RMK AO2 T10161065
KSHD 151715Z AUTO 16004KT 10SM OVC019 M02/M07 A2993 RMK AO2 T10161067
KSHD 151655Z AUTO 16003KT 10SM OVC019 M02/M07 A2995 RMK AO2 T10161068
KSHD 151635Z AUTO 21004KT 10SM OVC021 M02/M07 A2996 RMK AO2 T10161070
KSHD 151615Z AUTO 17003KT 10SM OVC023 M01/M07 A2997 RMK AO2 T10141075
KSHD 151555Z AUTO 20005KT 10SM OVC025 M01/M08 A2998 RMK AO2 T10151079
KSHD 151535Z AUTO 20004KT 7SM OVC025 M01/M08 A3000 RMK AO2 T10121085
KSHD 151515Z AUTO 19004KT 10SM OVC025 M02/M09 A3000 RMK AO2 T10171087
KSHD 151455Z AUTO 19004KT 10SM OVC027 M02/M09 A3001 RMK AO2 T10171088
KSHD 151435Z AUTO 20004KT 10SM BKN027 BKN031 OVC045 M01/M08 A3001 RMK AO2 T10111084
KSHD 151415Z AUTO 00000KT 10SM SCT033 BKN043 OVC050 M02/M09 A3001 RMK AO2 T10221086
KSHD 151355Z AUTO 00000KT 10SM SCT035 BKN043 OVC050 M02/M08 A3001 RMK AO2 T10241085
KSHD 151335Z AUTO 00000KT 10SM OVC043 M02/M08 A3001 RMK AO2 T10251084
KSHD 151315Z AUTO 00000KT 10SM SCT036 OVC043 M03/M08 A3001 RMK AO2 T10261085
KSHD 151255Z AUTO 00000KT 10SM OVC041 M03/M08 A3002 RMK AO2 T10261084
KSHD 151235Z AUTO 00000KT 10SM OVC041 M03/M08 A3002 RMK AO2 T10271082
KSHD 151215Z AUTO 00000KT 10SM OVC041 M03/M08 A3002 RMK AO2 T10271085
KSHD 151155Z AUTO 00000KT 10SM OVC041 M03/M08 A3002 RMK AO2 T10261080 11025 21045
KSHD 151135Z AUTO 00000KT 10SM OVC041 M02/M08 A3002 RMK AO2 T10251079
KSHD 151115Z AUTO 00000KT 10SM OVC041 M02/M08 A3002 RMK AO2 T10251079
KSHD 151055Z AUTO 00000KT 10SM OVC041 M02/M08 A3002 RMK AO2 T10251076
KSHD 151035Z AUTO 00000KT 10SM OVC041 M02/M07 A3003 RMK AO2 T10251075
KSHD 151015Z AUTO 00000KT 10SM OVC041 M03/M08 A3003 RMK AO2 T10261076
KSHD 150955Z AUTO 00000KT 10SM OVC041 M03/M07 A3003 RMK AO2 T10261075
KSHD 150935Z AUTO 00000KT 10SM OVC041 M03/M07 A3003 RMK AO2 T10281067
KSHD 150915Z AUTO 00000KT 10SM OVC041 M03/M07 A3004 RMK AO2 T10261074
KSHD 150900Z AUTO 00000KT 10SM OVC041 M03/M07 A3005 RMK AO2 T10281066
KSHD 150835Z AUTO 00000KT 10SM OVC041 M03/M07 A3005 RMK AO2 T10271069
KSHD 150815Z AUTO 00000KT 10SM OVC041 M03/M06 A3005 RMK AO2 T10301065
KSHD 150755Z AUTO 00000KT 10SM OVC041 M03/M06 A3005 RMK AO2 T10311059
KSHD 150735Z AUTO 00000KT 10SM OVC041 M03/M06 A3005 RMK AO2 T10351060
KSHD 150715Z AUTO 00000KT 10SM OVC043 M04/M06 A3005 RMK AO2 T10361058
KSHD 150655Z AUTO 00000KT 10SM OVC043 M04/M06 A3005 RMK AO2 T10361064
KSHD 150635Z AUTO 00000KT 10SM OVC043 M04/M07 A3004 RMK AO2 T10361066
KSHD 150615Z AUTO 00000KT 10SM BKN043 M04/M07 A3004 RMK AO2 T10451070
KSHD 150555Z AUTO 00000KT 10SM CLR M04/M07 A3004 RMK AO2 T10451072 11017 21053 400651053
KSHD 150535Z AUTO 00000KT 10SM CLR M05/M07 A3005 RMK AO2 T10461074
KSHD 150515Z AUTO 00000KT 10SM CLR M05/M08 A3005 RMK AO2 T10511077
KSHD 150455Z AUTO 00000KT 10SM CLR M04/M07 A3005 RMK AO2 T10451075
KSHD 150435Z AUTO 00000KT 10SM CLR M05/M08 A3005 RMK AO2 T10531078
KSHD 150415Z AUTO 00000KT 10SM CLR M04/M07 A3005 RMK AO2 T10371073
KSHD 150355Z AUTO 00000KT 10SM CLR M04/M07 A3005 RMK AO2 T10401075
KSHD 150335Z AUTO 00000KT 10SM CLR M04/M07 A3005 RMK AO2 T10371073
KSHD 150315Z AUTO 00000KT 10SM CLR M04/M07 A3005 RMK AO2 T10411074
KSHD 150255Z AUTO 00000KT 10SM CLR M04/M08 A3005 RMK AO2 T10431076
KSHD 150235Z AUTO 00000KT 10SM CLR M04/M08 A3004 RMK AO2 T10431076
KSHD 150215Z AUTO 00000KT 10SM CLR M04/M08 A3003 RMK AO2 T10401079
KSHD 150155Z AUTO 00000KT 10SM CLR M05/M08 A3004 RMK AO2 T10461079
KSHD 150135Z AUTO 00000KT 10SM CLR M05/M08 A3004 RMK AO2 T10461082
KSHD 150115Z AUTO 00000KT 10SM CLR M04/M08 A3003 RMK AO2 T10411079
KSHD 150055Z AUTO 00000KT 10SM CLR M04/M08 A3003 RMK AO2 T10371081
KSHD 150035Z AUTO 00000KT 10SM CLR M03/M08 A3002 RMK AO2 T10301078
KSHD 150015Z AUTO 00000KT 10SM CLR M02/M08 A3001 RMK AO2 T10171076
KSHD 142355Z AUTO 00000KT 10SM CLR M02/M08 A3000 RMK AO2 T10191078 10050 21021
KSHD 142335Z AUTO 03004KT 10SM CLR 00/M07 A2999 RMK AO2 T10051074
KSHD 142315Z AUTO 05003KT 10SM CLR M01/M07 A2999 RMK AO2 T10081074
KSHD 142255Z AUTO 05003KT 10SM CLR M01/M07 A2998 RMK AO2 T10071074
KSHD 142235Z AUTO 04005KT 10SM CLR 00/M07 A2997 RMK AO2 T10041075
KSHD 142215Z AUTO 36006KT 10SM CLR 01/M07 A2996 RMK AO2 T00111075
KSHD 142155Z AUTO 36006KT 10SM CLR 02/M07 A2994 RMK AO2 T00201074
KSHD 142135Z AUTO 35005KT 10SM CLR 02/M07 A2993 RMK AO2 T00231072
KSHD 142115Z AUTO 34006KT 10SM CLR 03/M07 A2992 RMK AO2 T00281073
KSHD 142055Z AUTO 35007KT 10SM CLR 04/M07 A2991 RMK AO2 T00351067
KSHD 142035Z AUTO 35008KT 10SM CLR 04/M07 A2990 RMK AO2 T00381066
KSHD 142015Z AUTO 35008KT 10SM CLR 04/M07 A2991 RMK AO2 T00411066
KSHD 141955Z AUTO 32004KT 10SM SCT050 05/M07 A2989 RMK AO2 T00451075
KSHD 141935Z AUTO 32003KT 10SM SCT050 05/M08 A2989 RMK AO2 T00461076
KSHD 141915Z AUTO 28005KT 10SM SCT050 05/M07 A2988 RMK AO2 T00471073
KSHD 141855Z AUTO 32006KT 10SM SCT050 05/M07 A2987 RMK AO2 T00451072
KSHD 141835Z AUTO 28005KT 10SM CLR 05/M07 A2987 RMK AO2 T00451075
KSHD 141815Z AUTO 29010G14KT 10SM SCT050 04/M08 A2986 RMK AO2 T00411076
KSHD 141755Z AUTO 29006KT 10SM BKN050 05/M07 A2985 RMK AO2 T00451072 10047 20022
KSHD 141735Z AUTO 32009G16KT 10SM SCT050 04/M08 A2984 RMK AO2 T00381076
KSHD 141715Z AUTO 33008KT 10SM SCT050 04/M08 A2984 RMK AO2 T00411077
KSHD 141655Z AUTO 28005KT 10SM SCT050 03/M08 A2985 RMK AO2 T00271081
KSHD 141635Z AUTO 30012G21KT 10SM CLR 04/M08 A2984 RMK AO2 T00371076
KSHD 141615Z AUTO 29012KT 10SM SCT050 04/M07 A2985 RMK AO2 T00381070
KSHD 141555Z AUTO 29008KT 10SM BKN050 04/M07 A2985 RMK AO2 T00351070
KSHD 141535Z AUTO 30013G16KT 10SM BKN050 03/M07 A2984 RMK AO2 T00261071